Time;durP1;ratioP1;P1;durP2;ratioP2;P2;SDS_P1;SDS_P2;PMS_P1;PMS_P2;Temp;Humidity;BMP_temperature;BMP_pressure;BME280_temperature;BME280_humidity;BME280_pressure;Samples;Min_cycle;Max_cycle;Signal;HPM_P1;HPM_P2
2022/07/02 00:00:04;;;;;;;11.57;10.77;;;;;;;21.17;64.64;93049.00;5005430;28;20202;-76
2022/07/02 00:02:34;;;;;;;11.93;11.02;;;;;;;21.03;66.06;93042.50;5003150;28;20234;-75
2022/07/02 00:05:05;;;;;;;12.35;11.43;;;;;;;20.98;67.29;93034.72;5003034;28;20223;-75
2022/07/02 00:07:31;;;;;;;14.23;12.02;;;;;;;20.87;67.77;93037.03;5003166;28;20235;-76
2022/07/02 00:09:58;;;;;;;11.48;10.57;;;;;;;20.75;67.51;93038.91;4988305;28;20204;-76
2022/07/02 00:12:24;;;;;;;12.00;11.10;;;;;;;20.92;66.44;93036.03;5002214;28;21875;-76
2022/07/02 00:14:55;;;;;;;11.85;10.90;;;;;;;21.00;66.56;93040.47;5003869;28;20191;-75
2022/07/02 00:17:21;;;;;;;10.90;10.00;;;;;;;21.01;66.31;93045.47;5001635;28;20227;-75
2022/07/02 00:19:47;;;;;;;12.40;11.50;;;;;;;21.03;66.48;93040.59;5003589;28;20230;-76
2022/07/02 00:22:14;;;;;;;11.88;10.82;;;;;;;21.01;65.61;93042.03;4989631;28;20240;-75
2022/07/02 00:24:41;;;;;;;11.98;10.38;;;;;;;21.03;65.62;93043.25;4983887;28;20221;-77
2022/07/02 00:27:12;;;;;;;11.80;10.68;;;;;;;21.16;65.00;93036.03;4984603;28;20231;-76
2022/07/02 00:29:58;;;;;;;11.70;10.80;;;;;;;21.16;65.30;93036.84;4985944;28;20199;-75
2022/07/02 00:32:27;;;;;;;12.60;11.52;;;;;;;20.94;65.81;93002.72;4981443;28;20250;-75
2022/07/02 00:34:55;;;;;;;11.10;10.23;;;;;;;21.03;65.83;93013.28;4985443;28;20191;-75
2022/07/02 00:37:21;;;;;;;11.50;10.60;;;;;;;21.04;65.51;93012.94;4983444;28;20231;-76
2022/07/02 00:39:46;;;;;;;13.32;12.23;;;;;;;21.11;65.54;93018.47;4984504;28;20765;-74
2022/07/02 00:42:14;;;;;;;11.93;11.00;;;;;;;21.01;65.79;93002.22;4983872;28;20234;-76
2022/07/02 00:44:41;;;;;;;12.40;11.40;;;;;;;21.09;65.97;93019.91;4966815;28;20222;-76
2022/07/02 00:47:08;;;;;;;11.88;11.18;;;;;;;21.13;66.07;93026.09;4983932;28;20618;-75
2022/07/02 00:49:36;;;;;;;11.68;10.80;;;;;;;21.03;65.84;93010.63;4987197;28;20192;-75
2022/07/02 00:52:03;;;;;;;11.90;10.88;;;;;;;21.07;65.96;93011.50;4984638;28;20217;-75
2022/07/02 00:54:29;;;;;;;11.95;11.15;;;;;;;21.26;65.28;93019.69;4984653;28;20202;-76
2022/07/02 00:56:55;;;;;;;12.30;11.43;;;;;;;21.39;65.73;93040.56;4984165;28;20248;-76
2022/07/02 00:59:22;;;;;;;11.38;10.35;;;;;;;21.75;64.64;93042.41;4985872;28;20183;-75
2022/07/02 01:01:48;;;;;;;11.52;10.70;;;;;;;21.29;66.73;93045.56;4997003;28;20241;-75
2022/07/02 01:04:15;;;;;;;11.32;10.57;;;;;;;21.15;67.46;93045.91;5003461;28;20258;-76
2022/07/02 01:06:42;;;;;;;12.48;11.52;;;;;;;21.11;67.99;93049.53;5000584;28;20373;-76
2022/07/02 01:12:00;;;;;;;12.18;11.23;;;;;;;20.92;69.20;93014.78;5004829;28;20257;-75
2022/07/02 01:14:26;;;;;;;12.10;11.30;;;;;;;20.96;69.39;93026.31;5003390;28;20189;-74
2022/07/02 01:16:53;;;;;;;12.90;11.93;;;;;;;20.92;69.75;93028.81;5004795;28;20246;-75
2022/07/02 01:19:20;;;;;;;12.90;11.88;;;;;;;20.89;69.99;93029.50;5004962;28;21866;-76
2022/07/02 01:22:09;;;;;;;13.82;12.20;;;;;;;20.93;70.28;93022.44;5006720;28;20254;-76
2022/07/02 01:24:35;;;;;;;12.18;11.18;;;;;;;20.73;70.95;93001.28;5005818;28;20212;-75
2022/07/02 01:27:00;;;;;;;12.73;11.57;;;;;;;20.67;71.07;92988.22;5005958;28;20820;-76
2022/07/02 01:29:25;;;;;;;13.88;12.52;;;;;;;20.75;71.33;93009.69;5006364;28;20246;-75
2022/07/02 01:31:51;;;;;;;13.55;12.45;;;;;;;20.69;71.85;93022.41;5006497;28;20227;-75
2022/07/02 01:34:16;;;;;;;13.10;12.00;;;;;;;20.57;71.50;92993.19;5007476;28;20200;-75
2022/07/02 01:36:42;;;;;;;12.68;11.73;;;;;;;20.53;71.72;92990.44;5001520;28;20287;-75
2022/07/02 01:39:07;;;;;;;12.60;11.77;;;;;;;20.52;71.76;93012.75;5004940;28;20195;-75
2022/07/02 01:41:38;;;;;;;12.98;11.65;;;;;;;20.42;71.12;92986.66;5004999;28;20282;-76
2022/07/02 01:44:04;;;;;;;13.32;12.32;;;;;;;20.64;70.65;93004.81;5004333;28;20214;-76
2022/07/02 01:46:30;;;;;;;12.90;11.90;;;;;;;20.56;69.55;92999.63;5005403;28;20318;-76
2022/07/02 01:48:55;;;;;;;12.50;11.32;;;;;;;20.57;70.03;92995.84;5007807;28;20183;-76
2022/07/02 01:51:20;;;;;;;12.80;11.70;;;;;;;20.70;71.11;93010.69;5006700;28;20245;-75
2022/07/02 01:53:46;;;;;;;12.23;11.25;;;;;;;20.38;71.73;92969.06;5003200;28;21115;-75
2022/07/02 01:56:11;;;;;;;12.10;11.18;;;;;;;20.45;71.37;92986.00;5006608;28;20234;-75
2022/07/02 01:58:36;;;;;;;12.18;11.07;;;;;;;20.51;72.04;92997.19;5005618;28;20193;-76
2022/07/02 02:01:02;;;;;;;13.02;11.98;;;;;;;20.47;72.43;92999.72;4987514;28;20323;-76
2022/07/02 02:03:28;;;;;;;12.45;11.50;;;;;;;20.38;72.82;93006.22;5005755;28;20220;-75
2022/07/02 02:05:53;;;;;;;12.50;11.50;;;;;;;20.38;73.19;93016.81;5002992;28;20235;-75
2022/07/02 02:08:18;;;;;;;12.18;11.20;;;;;;;20.17;73.71;92998.31;5007028;28;20676;-76
2022/07/02 02:10:44;;;;;;;12.55;11.55;;;;;;;20.26;73.63;93019.44;4982897;28;20298;-77
2022/07/02 02:13:09;;;;;;;12.43;11.53;;;;;;;20.40;73.11;93020.72;4999906;28;20176;-76
2022/07/02 02:15:34;;;;;;;12.47;11.57;;;;;;;20.33;73.50;93011.72;5000928;28;20207;-74
2022/07/02 02:18:00;;;;;;;11.40;10.60;;;;;;;20.29;73.72;93002.88;5002632;28;20186;-76
2022/07/02 02:20:25;;;;;;;12.27;11.07;;;;;;;20.26;73.87;93012.28;5004593;28;20198;-76
2022/07/02 02:22:50;;;;;;;12.02;11.23;;;;;;;20.32;74.42;93012.81;5003648;28;20186;-77
2022/07/02 02:25:16;;;;;;;13.38;12.32;;;;;;;20.20;74.26;93002.94;5003035;28;20279;-76
2022/07/02 02:27:41;;;;;;;12.38;11.38;;;;;;;20.15;74.99;93013.00;5002252;28;20265;-77
2022/07/02 02:30:07;;;;;;;12.63;11.75;;;;;;;20.17;75.02;93008.91;5002600;28;20210;-77
2022/07/02 02:32:33;;;;;;;13.05;11.95;;;;;;;20.03;74.89;93005.00;5001447;28;20614;-76
2022/07/02 02:34:58;;;;;;;12.88;11.90;;;;;;;20.09;75.64;93035.50;5001808;28;20965;-77
2022/07/02 02:37:24;;;;;;;12.70;11.70;;;;;;;19.72;76.49;93009.94;5000675;28;20289;-76
2022/07/02 02:39:49;;;;;;;12.23;11.43;;;;;;;19.55;77.66;93010.84;4999547;28;20185;-77
2022/07/02 02:42:15;;;;;;;12.13;11.23;;;;;;;19.80;77.12;93022.34;5000182;28;20230;-77
2022/07/02 02:44:40;;;;;;;13.73;12.63;;;;;;;19.73;77.04;93032.69;4999258;28;20273;-76
2022/07/02 02:47:05;;;;;;;13.37;11.83;;;;;;;19.78;77.29;93046.50;5001450;28;20745;-76
2022/07/02 02:49:31;;;;;;;12.63;11.73;;;;;;;19.93;76.61;93043.28;5002583;28;20194;-76
2022/07/02 02:51:56;;;;;;;12.83;11.87;;;;;;;19.80;76.99;93048.84;4997710;28;20246;-77
2022/07/02 02:54:21;;;;;;;12.77;11.77;;;;;;;19.84;77.18;93049.75;5003292;28;20246;-76
2022/07/02 02:56:47;;;;;;;12.43;11.33;;;;;;;19.76;77.44;93038.13;5002160;28;20297;-77
2022/07/02 02:59:12;;;;;;;13.47;12.13;;;;;;;19.76;77.73;93032.81;5000520;28;20217;-76
2022/07/02 03:01:38;;;;;;;13.70;12.37;;;;;;;19.82;77.78;93046.63;4999458;28;20237;-76
2022/07/02 03:04:03;;;;;;;16.43;12.30;;;;;;;19.80;77.19;93025.75;5003726;28;20210;-76
2022/07/02 03:06:29;;;;;;;13.40;12.37;;;;;;;19.84;77.45;93039.91;4998962;28;20234;-76
2022/07/02 03:08:54;;;;;;;14.13;12.83;;;;;;;19.92;76.63;93033.00;5002307;28;20229;-77
2022/07/02 03:11:19;;;;;;;12.90;11.80;;;;;;;20.03;76.75;93050.06;5003807;28;20254;-76
2022/07/02 03:13:45;;;;;;;12.57;11.37;;;;;;;20.34;74.83;93031.84;5004758;28;20204;-75
2022/07/02 03:16:10;;;;;;;13.33;12.33;;;;;;;20.98;73.23;93054.06;5000193;28;20230;-77
2022/07/02 03:18:35;;;;;;;12.60;11.70;;;;;;;21.22;71.19;93018.78;4991812;28;20198;-76
2022/07/02 03:21:01;;;;;;;11.60;10.80;;;;;;;21.93;69.48;93052.44;5001619;28;20238;-76
2022/07/02 03:23:26;;;;;;;12.15;11.35;;;;;;;22.24;67.39;93043.81;5001657;28;20214;-76
2022/07/02 03:25:52;;;;;;;15.23;11.13;;;;;;;22.73;65.62;93082.41;5001687;28;20238;-76
2022/07/02 03:28:17;;;;;;;12.15;11.05;;;;;;;22.56;66.36;93072.06;5001224;28;20181;-76
2022/07/02 03:30:42;;;;;;;12.63;11.43;;;;;;;22.17;67.93;93081.63;5000019;28;20237;-76
2022/07/02 03:33:08;;;;;;;11.60;10.80;;;;;;;21.99;68.49;93048.44;5002148;28;20186;-77
2022/07/02 03:35:33;;;;;;;11.60;10.75;;;;;;;22.36;67.82;93083.66;5000823;28;20181;-77
2022/07/02 03:38:01;;;;;;;11.80;10.95;;;;;;;22.53;67.54;93077.28;5000902;28;20192;-78
2022/07/02 03:40:27;;;;;;;12.88;11.73;;;;;;;23.32;64.76;93079.69;4997878;28;20176;-76
2022/07/02 03:42:53;;;;;;;12.48;11.20;;;;;;;23.52;63.51;93081.28;5000403;28;20199;-77
2022/07/02 03:45:18;;;;;;;13.73;12.63;;;;;;;23.66;63.14;93071.72;5000262;28;20225;-76
2022/07/02 03:47:43;;;;;;;13.18;12.18;;;;;;;23.44;63.47;93064.38;5001297;28;20233;-80
2022/07/02 03:50:09;;;;;;;13.27;11.93;;;;;;;23.25;64.64;93082.19;5002104;28;20187;-77
2022/07/02 03:52:36;;;;;;;12.82;11.77;;;;;;;23.22;65.16;93082.84;5004130;28;20298;-77
2022/07/02 03:55:02;;;;;;;12.98;11.80;;;;;;;23.11;66.21;93092.47;5005294;28;20194;-77
2022/07/02 03:57:28;;;;;;;13.60;12.45;;;;;;;23.54;64.91;93079.06;5005302;28;20249;-77
2022/07/02 03:59:53;;;;;;;13.65;12.18;;;;;;;24.45;61.58;93093.63;5005099;28;20197;-77
2022/07/02 04:02:18;;;;;;;14.57;13.23;;;;;;;24.44;61.29;93090.16;5006751;28;20248;-77
2022/07/02 04:04:44;;;;;;;14.80;13.40;;;;;;;24.88;59.85;93106.66;5005641;28;20222;-77
2022/07/02 04:07:09;;;;;;;14.10;12.73;;;;;;;24.73;58.79;93112.88;5006498;28;20233;-77
2022/07/02 04:09:35;;;;;;;15.25;13.93;;;;;;;24.12;60.21;93106.66;5006455;28;20219;-77
2022/07/02 04:12:00;;;;;;;14.05;12.80;;;;;;;24.09;62.23;93110.03;5005071;28;20284;-77
2022/07/02 04:14:25;;;;;;;16.10;14.65;;;;;;;24.55;60.68;93101.03;5001914;28;20298;-77
2022/07/02 04:16:51;;;;;;;14.90;13.70;;;;;;;24.42;62.41;93113.00;5001812;28;20217;-75
2022/07/02 04:19:16;;;;;;;13.85;12.55;;;;;;;24.16;62.10;93099.47;5003847;28;20321;-74
2022/07/02 04:21:42;;;;;;;15.00;13.60;;;;;;;24.01;62.13;93098.44;4993614;28;20297;-75
2022/07/02 04:24:07;;;;;;;14.90;13.35;;;;;;;24.01;63.46;93101.09;5001348;28;20224;-74
2022/07/02 04:26:32;;;;;;;14.80;13.45;;;;;;;24.11;63.58;93103.19;5001690;28;20242;-76
2022/07/02 04:28:58;;;;;;;16.40;13.32;;;;;;;24.23;62.51;93104.97;5006941;28;20215;-74
2022/07/02 04:31:23;;;;;;;14.65;13.15;;;;;;;24.43;62.48;93103.88;5004406;28;20360;-74
2022/07/02 04:33:49;;;;;;;14.40;13.20;;;;;;;24.96;59.51;93106.44;5004027;28;20199;-73
2022/07/02 04:36:14;;;;;;;14.95;13.65;;;;;;;25.04;59.22;93113.44;5004127;28;20283;-74
2022/07/02 04:38:39;;;;;;;13.85;12.65;;;;;;;26.05;57.92;93118.94;5004071;28;20349;-71
2022/07/02 04:41:05;;;;;;;15.18;13.70;;;;;;;25.40;57.90;93109.50;5005238;28;20228;-72
2022/07/02 04:43:30;;;;;;;14.77;13.40;;;;;;;25.29;59.11;93097.84;5002404;28;20229;-73
2022/07/02 04:45:55;;;;;;;16.52;13.57;;;;;;;25.42;59.00;93123.28;5006462;28;20223;-72
2022/07/02 04:48:21;;;;;;;14.48;13.07;;;;;;;25.26;59.33;93131.38;5005402;28;20238;-72
2022/07/02 04:50:46;;;;;;;14.63;13.32;;;;;;;24.97;60.08;93117.88;5001770;28;20263;-72
2022/07/02 04:53:12;;;;;;;13.85;12.55;;;;;;;25.06;57.65;93116.53;5004119;28;20186;-72
2022/07/02 04:55:37;;;;;;;14.70;13.30;;;;;;;24.40;59.72;93115.25;5003166;28;20195;-75
2022/07/02 04:58:02;;;;;;;14.20;12.88;;;;;;;24.77;58.79;93119.03;5005598;28;20246;-73
2022/07/02 05:00:28;;;;;;;14.32;12.90;;;;;;;25.22;58.46;93121.75;5006386;28;20197;-73
2022/07/02 05:02:53;;;;;;;14.02;12.95;;;;;;;24.20;62.03;93121.69;5002140;28;20183;-75
2022/07/02 05:05:19;;;;;;;15.30;14.05;;;;;;;23.91;64.24;93119.53;5001790;28;20241;-73
2022/07/02 05:07:44;;;;;;;16.73;14.95;;;;;;;23.80;63.71;93123.84;5003052;28;20260;-74
2022/07/02 05:10:09;;;;;;;16.65;15.00;;;;;;;24.10;63.38;93120.34;5000837;28;20186;-75
2022/07/02 05:12:35;;;;;;;17.10;15.40;;;;;;;25.06;61.20;93131.78;5002686;28;20226;-78
2022/07/02 05:15:00;;;;;;;17.17;15.50;;;;;;;27.46;54.54;93136.66;5002278;28;20195;-74
2022/07/02 05:17:25;;;;;;;16.08;14.43;;;;;;;30.84;44.45;93139.94;5000418;28;20220;-75
2022/07/02 05:19:51;;;;;;;14.82;13.52;;;;;;;30.27;45.30;93143.94;5001007;28;20196;-75
2022/07/02 05:22:17;;;;;;;16.58;14.98;;;;;;;29.80;45.55;93136.25;5000941;28;20230;-75
2022/07/02 05:24:42;;;;;;;20.70;14.55;;;;;;;28.56;49.49;93134.41;5000886;28;20211;-75
2022/07/02 05:27:08;;;;;;;15.57;14.00;;;;;;;28.20;50.07;93138.00;5001409;28;20230;-75
2022/07/02 05:29:33;;;;;;;15.27;13.75;;;;;;;26.95;54.04;93138.41;5000059;28;20206;-74
2022/07/02 05:31:58;;;;;;;15.73;14.35;;;;;;;26.81;54.12;93135.56;5000065;28;20228;-75
2022/07/02 05:34:24;;;;;;;16.45;14.77;;;;;;;26.94;54.05;93137.66;5002946;28;20199;-76
2022/07/02 05:36:49;;;;;;;15.88;14.38;;;;;;;28.44;50.72;93148.09;5000385;28;20304;-75
2022/07/02 05:39:15;;;;;;;20.05;15.30;;;;;;;31.91;41.51;93162.50;4998572;28;20191;-75
2022/07/02 05:41:41;;;;;;;16.30;14.73;;;;;;;34.76;34.77;93173.16;4998354;28;20226;-74
2022/07/02 05:44:07;;;;;;;14.75;13.25;;;;;;;36.11;32.83;93172.66;5002009;28;20207;-75
2022/07/02 05:46:32;;;;;;;14.43;12.70;;;;;;;36.09;31.92;93173.06;4999791;28;20219;-75
2022/07/02 05:48:57;;;;;;;13.25;12.15;;;;;;;37.56;29.50;93190.19;5001714;28;20191;-75
2022/07/02 05:51:23;;;;;;;13.30;11.35;;;;;;;37.42;30.12;93187.13;4997209;28;20292;-77
2022/07/02 05:53:48;;;;;;;12.90;11.57;;;;;;;37.97;28.98;93187.41;5003655;28;20223;-76
2022/07/02 05:56:13;;;;;;;12.68;11.60;;;;;;;38.48;28.48;93188.91;5001216;28;20215;-76
2022/07/02 05:58:39;;;;;;;12.57;11.48;;;;;;;39.24;26.82;93194.91;5005558;28;20242;-75
2022/07/02 06:01:05;;;;;;;13.18;11.93;;;;;;;39.00;27.11;93198.53;4998571;28;20284;-75
2022/07/02 06:03:30;;;;;;;13.35;12.02;;;;;;;39.91;25.54;93195.94;5000380;28;20224;-76
2022/07/02 06:08:39;;;;;;;12.32;11.27;;;;;;;39.43;26.13;93198.53;5005334;28;20238;-73
2022/07/02 06:11:06;;;;;;;12.95;11.70;;;;;;;39.93;25.31;93185.31;5000340;28;20231;-74
2022/07/02 06:13:32;;;;;;;11.45;10.52;;;;;;;40.34;24.90;93197.81;5001708;28;20259;-73
2022/07/02 06:15:57;;;;;;;11.35;10.32;;;;;;;41.23;24.08;93193.66;5002165;28;20235;-73
2022/07/02 06:18:24;;;;;;;11.77;10.77;;;;;;;40.99;24.08;93175.53;5002452;28;20215;-74
2022/07/02 06:20:50;;;;;;;11.77;10.88;;;;;;;39.27;26.68;93193.25;5003751;28;20291;-74
2022/07/02 06:23:16;;;;;;;11.77;10.80;;;;;;;38.32;27.28;93180.09;5002171;28;20206;-73
2022/07/02 06:25:41;;;;;;;12.05;11.02;;;;;;;37.67;28.60;93177.03;5001053;28;20881;-74
2022/07/02 06:28:07;;;;;;;12.38;11.23;;;;;;;40.59;25.43;93183.09;5003467;28;20218;-73
2022/07/02 06:30:32;;;;;;;12.10;10.80;;;;;;;42.12;23.35;93201.44;5001943;28;20204;-74
2022/07/02 06:32:57;;;;;;;12.48;10.77;;;;;;;39.99;26.14;93190.22;5002487;28;20247;-73
2022/07/02 06:35:23;;;;;;;12.35;11.10;;;;;;;39.52;26.76;93182.97;4998853;28;20180;-74
2022/07/02 06:37:49;;;;;;;16.60;11.18;;;;;;;38.88;28.57;93191.13;5002837;28;20219;-71
2022/07/02 06:40:14;;;;;;;11.88;10.77;;;;;;;40.50;26.06;93194.81;4997192;28;20183;-73
2022/07/02 06:42:40;;;;;;;12.90;10.60;;;;;;;41.03;25.18;93185.13;5000875;28;20223;-73
2022/07/02 06:45:06;;;;;;;12.07;10.95;;;;;;;41.33;24.48;93199.91;5000272;28;20229;-73
2022/07/02 06:47:32;;;;;;;13.75;11.60;;;;;;;40.79;24.86;93205.38;5002959;28;20242;-73
2022/07/02 06:49:58;;;;;;;13.18;10.77;;;;;;;40.91;25.18;93202.50;4999402;28;20206;-74
2022/07/02 06:52:25;;;;;;;12.27;11.10;;;;;;;36.71;30.77;93182.81;5002136;28;20239;-72
2022/07/02 06:54:50;;;;;;;12.30;11.23;;;;;;;33.96;34.86;93179.50;5002808;28;20175;-74
2022/07/02 06:57:16;;;;;;;13.05;11.80;;;;;;;31.04;41.16;93170.69;5001859;28;20726;-74
2022/07/02 06:59:41;;;;;;;13.77;12.52;;;;;;;29.52;45.75;93177.38;5003966;28;20942;-74
2022/07/02 07:02:07;;;;;;;12.43;11.45;;;;;;;29.22;46.06;93168.06;5002401;28;20211;-76
2022/07/02 07:04:34;;;;;;;12.73;11.73;;;;;;;29.78;44.86;93173.56;5002969;28;20247;-73
2022/07/02 07:07:03;;;;;;;13.20;12.10;;;;;;;29.47;46.25;93161.59;5001853;28;20246;-73
2022/07/02 07:09:28;;;;;;;13.65;12.55;;;;;;;29.36;45.89;93163.50;4999778;28;20200;-74
2022/07/02 07:11:54;;;;;;;12.80;11.70;;;;;;;29.12;46.96;93176.88;5001806;28;20216;-73
2022/07/02 07:14:20;;;;;;;14.48;13.02;;;;;;;28.86;48.51;93180.59;5000202;28;20253;-72
2022/07/02 07:16:45;;;;;;;14.25;12.85;;;;;;;28.58;49.29;93185.09;4999643;28;20230;-72
2022/07/02 07:19:11;;;;;;;14.00;12.70;;;;;;;28.38;50.37;93184.53;4999687;28;20184;-74
2022/07/02 07:21:38;;;;;;;14.32;13.05;;;;;;;28.20;50.78;93189.03;5002859;28;20230;-75
2022/07/02 07:24:05;;;;;;;15.98;12.88;;;;;;;28.33;49.94;93184.88;5003749;28;20225;-74
2022/07/02 07:26:30;;;;;;;14.02;12.63;;;;;;;28.09;52.59;93188.19;5001679;28;20241;-74
2022/07/02 07:28:56;;;;;;;15.55;12.85;;;;;;;28.20;49.24;93132.63;5007264;28;20213;-74
2022/07/02 07:31:22;;;;;;;14.27;12.93;;;;;;;28.77;49.22;93192.84;5005992;28;20215;-72
2022/07/02 07:33:52;;;;;;;14.05;12.85;;;;;;;28.75;48.40;93181.72;5003139;28;20234;-72
2022/07/02 07:36:22;;;;;;;14.52;13.13;;;;;;;27.76;52.49;93185.59;5004730;28;20306;-73
2022/07/02 07:38:49;;;;;;;14.80;13.25;;;;;;;28.19;51.58;93199.00;5004716;28;20269;-73
2022/07/02 07:41:15;;;;;;;15.15;13.68;;;;;;;28.33;50.05;93189.50;5001626;28;20238;-73
2022/07/02 07:43:40;;;;;;;15.48;13.55;;;;;;;28.62;50.33;93194.69;5004832;28;20225;-74
2022/07/02 07:46:06;;;;;;;14.70;13.38;;;;;;;28.07;50.43;93187.78;5001063;28;20238;-72
2022/07/02 07:48:32;;;;;;;15.07;13.50;;;;;;;28.35;50.98;93171.09;5003172;28;21595;-72
2022/07/02 07:50:57;;;;;;;15.73;14.25;;;;;;;28.54;51.95;93154.72;5004875;28;20320;-74
2022/07/02 07:53:23;;;;;;;16.55;13.95;;;;;;;27.83;51.02;93177.63;5004628;28;20202;-74
2022/07/02 07:55:48;;;;;;;17.38;12.57;;;;;;;28.59;51.05;93173.97;5004792;28;20223;-75
2022/07/02 07:58:17;;;;;;;15.55;13.02;;;;;;;29.12;47.69;93183.00;5005746;28;20207;-74
2022/07/02 08:00:43;;;;;;;17.92;14.00;;;;;;;29.07;48.94;93191.47;5006935;28;20253;-75
2022/07/02 08:03:10;;;;;;;14.13;12.95;;;;;;;29.28;47.84;93201.50;5006882;28;20172;-72
2022/07/02 08:05:35;;;;;;;31.50;27.98;;;;;;;29.15;48.68;93197.66;5004371;28;20213;-71
2022/07/02 08:08:01;;;;;;;13.80;12.70;;;;;;;29.11;49.29;93197.63;5004194;28;20233;-71
2022/07/02 08:10:26;;;;;;;16.55;14.95;;;;;;;29.03;48.45;93190.66;5000874;28;20208;-74
2022/07/02 08:12:52;;;;;;;14.90;13.50;;;;;;;29.04;49.83;93186.81;5006419;28;20196;-72
2022/07/02 08:15:17;;;;;;;14.60;13.00;;;;;;;29.08;48.32;93178.78;5006706;28;20187;-73
2022/07/02 08:17:43;;;;;;;15.10;13.77;;;;;;;28.97;47.66;93196.75;5004510;28;20233;-73
2022/07/02 08:20:10;;;;;;;14.25;12.95;;;;;;;28.08;51.85;93200.06;5005576;28;20179;-75
2022/07/02 08:22:36;;;;;;;14.82;13.55;;;;;;;28.83;47.52;93197.47;5008224;28;20231;-74
2022/07/02 08:25:03;;;;;;;14.50;13.20;;;;;;;28.75;48.99;93195.91;5006247;28;20278;-74
2022/07/02 08:27:29;;;;;;;14.05;12.68;;;;;;;28.79;50.00;93204.00;5006191;28;20818;-75
2022/07/02 08:29:54;;;;;;;15.30;13.90;;;;;;;28.89;51.69;93190.59;5007973;28;20188;-75
2022/07/02 08:32:20;;;;;;;19.58;14.00;;;;;;;29.43;48.47;93203.84;5006923;28;20219;-75
2022/07/02 08:34:45;;;;;;;13.98;12.50;;;;;;;29.57;48.30;93203.88;5005624;28;20191;-74
2022/07/02 08:37:11;;;;;;;13.30;12.20;;;;;;;29.65;45.11;93200.09;5004110;28;20241;-73
2022/07/02 08:39:36;;;;;;;14.88;13.10;;;;;;;29.58;44.33;93199.28;5001941;28;20200;-74
2022/07/02 08:42:03;;;;;;;13.73;12.43;;;;;;;29.53;45.09;93208.50;5003333;28;20224;-74
2022/07/02 08:44:31;;;;;;;14.52;13.20;;;;;;;28.83;47.40;93210.13;5004586;28;20249;-74
2022/07/02 08:46:58;;;;;;;14.30;12.90;;;;;;;29.20;46.83;93211.47;5004439;28;20300;-73
2022/07/02 08:49:26;;;;;;;13.57;12.18;;;;;;;29.04;45.05;93208.34;5001435;28;20206;-74
2022/07/02 08:52:12;;;;;;;12.75;11.57;;;;;;;29.40;46.40;93215.38;5001454;28;20242;-73
2022/07/02 08:54:37;;;;;;;12.95;11.85;;;;;;;29.87;44.52;93216.28;5000678;28;20200;-73
2022/07/02 08:57:03;;;;;;;12.68;11.50;;;;;;;30.02;44.81;93223.19;5003740;28;20294;-75
2022/07/02 08:59:31;;;;;;;13.32;12.07;;;;;;;29.65;45.76;93213.53;4984694;28;20185;-76
2022/07/02 09:01:57;;;;;;;14.15;12.63;;;;;;;29.92;41.65;93218.59;5002846;28;20302;-73
2022/07/02 09:04:24;;;;;;;12.25;11.15;;;;;;;29.70;40.72;93209.69;5000522;28;20216;-71
2022/07/02 09:06:53;;;;;;;11.23;10.32;;;;;;;29.06;42.88;93181.09;5003094;28;20256;-70
2022/07/02 09:09:19;;;;;;;12.65;11.35;;;;;;;29.76;41.97;93216.25;5001847;28;20742;-74
2022/07/02 09:11:45;;;;;;;11.02;10.13;;;;;;;29.79;42.10;93214.72;4987449;28;20225;-73
2022/07/02 09:14:12;;;;;;;12.43;11.45;;;;;;;29.73;44.35;93220.47;5007400;28;20190;-73
2022/07/02 09:16:38;;;;;;;12.13;11.13;;;;;;;29.91;43.96;93217.03;5007388;28;20230;-73
2022/07/02 09:19:04;;;;;;;11.43;10.48;;;;;;;29.63;42.57;93212.38;5005125;28;20183;-73
2022/07/02 09:21:40;;;;;;;11.57;10.48;;;;;;;30.16;39.74;93207.81;5002982;28;20238;-70
2022/07/02 09:24:06;;;;;;;9.95;9.23;;;;;;;30.23;40.89;93209.78;5002709;28;20223;-73
2022/07/02 09:26:31;;;;;;;10.48;9.50;;;;;;;30.12;38.49;93200.91;5000969;28;20228;-76
2022/07/02 09:29:00;;;;;;;9.68;8.98;;;;;;;30.24;38.01;93219.38;5002127;28;20202;-72
2022/07/02 09:31:32;;;;;;;10.80;10.00;;;;;;;29.79;39.60;93209.34;5000543;28;20230;-72
2022/07/02 09:33:59;;;;;;;12.20;11.07;;;;;;;29.76;40.01;93213.56;4984733;28;20201;-72
2022/07/02 09:36:25;;;;;;;13.15;11.85;;;;;;;30.41;40.62;93207.81;5005417;28;20365;-73
2022/07/02 09:38:52;;;;;;;12.18;10.90;;;;;;;30.39;39.71;93212.81;5002532;28;20199;-73
2022/07/02 09:41:26;;;;;;;13.00;11.98;;;;;;;30.09;42.56;93212.44;5002847;28;20223;-72
2022/07/02 09:43:52;;;;;;;20.23;12.18;;;;;;;30.14;42.06;93214.72;5001933;28;20277;-72
2022/07/02 09:46:21;;;;;;;12.00;11.02;;;;;;;30.36;39.61;93205.50;5001036;28;20234;-72
2022/07/02 09:48:47;;;;;;;12.40;11.27;;;;;;;29.23;41.96;93199.97;5003725;28;20291;-73
2022/07/02 09:51:17;;;;;;;11.60;10.70;;;;;;;29.73;42.67;93204.34;5000523;28;20229;-72
2022/07/02 09:53:53;;;;;;;12.30;11.00;;;;;;;30.15;44.06;93208.22;5002378;28;20180;-73
2022/07/02 09:56:24;;;;;;;11.55;10.55;;;;;;;29.99;40.95;93205.13;4981784;28;20232;-74
2022/07/02 09:58:50;;;;;;;11.40;10.60;;;;;;;30.40;41.95;93201.66;5002776;28;20306;-73
2022/07/02 10:01:22;;;;;;;11.65;10.75;;;;;;;30.48;41.22;93208.56;5000496;28;20231;-72
2022/07/02 10:03:52;;;;;;;10.75;9.95;;;;;;;30.48;41.49;93200.47;4990669;28;20233;-73
2022/07/02 10:06:19;;;;;;;14.18;10.68;;;;;;;30.34;40.25;93186.25;5000539;28;20238;-72
2022/07/02 10:08:44;;;;;;;12.00;11.02;;;;;;;29.83;41.44;93193.94;5000653;28;20233;-75
2022/07/02 10:11:12;;;;;;;11.70;10.88;;;;;;;30.26;40.10;93190.13;5000999;28;20222;-73
2022/07/02 10:13:39;;;;;;;12.07;11.15;;;;;;;30.22;41.53;93183.97;4999920;28;20192;-74
2022/07/02 10:16:19;;;;;;;12.82;11.60;;;;;;;30.65;40.18;93171.94;5002553;28;20242;-73
2022/07/02 10:18:45;;;;;;;11.65;10.82;;;;;;;30.78;39.07;93181.19;5004666;28;20187;-71
2022/07/02 10:21:13;;;;;;;11.35;10.55;;;;;;;30.80;39.62;93181.56;4998907;28;20341;-72
2022/07/02 10:23:40;;;;;;;12.30;11.30;;;;;;;31.00;39.11;93180.72;5000616;28;20215;-78
2022/07/02 10:26:06;;;;;;;11.68;10.38;;;;;;;30.97;38.60;93175.34;5000326;28;20222;-74
2022/07/02 10:28:33;;;;;;;11.88;10.77;;;;;;;31.10;39.05;93163.72;5002883;28;20180;-74
2022/07/02 10:30:59;;;;;;;13.48;11.00;;;;;;;30.90;39.25;93151.84;5001520;28;20235;-75
2022/07/02 10:34:09;;;;;;;11.30;10.20;;;;;;;31.17;39.68;93171.78;4999710;28;20195;-75
2022/07/02 10:36:35;;;;;;;12.00;11.00;;;;;;;31.04;39.07;93170.69;5001349;28;20244;-74
2022/07/02 10:39:02;;;;;;;11.55;10.68;;;;;;;31.00;40.09;93178.03;5000495;28;20227;-73
2022/07/02 10:41:29;;;;;;;11.65;10.73;;;;;;;31.20;40.09;93172.91;4998805;28;20215;-75
2022/07/02 10:43:56;;;;;;;11.95;11.02;;;;;;;30.80;40.10;93149.22;5004116;28;20281;-76
2022/07/02 10:46:26;;;;;;;12.77;11.55;;;;;;;30.59;39.88;93165.41;4997594;28;20235;-76
2022/07/02 10:49:00;;;;;;;12.45;11.35;;;;;;;31.21;37.56;93150.16;4998976;28;21149;-72
2022/07/02 10:51:27;;;;;;;11.75;10.90;;;;;;;31.50;39.00;93161.59;5001380;28;20279;-73
2022/07/02 10:53:58;;;;;;;11.82;10.45;;;;;;;31.42;36.25;93160.88;4999904;28;20222;-72
2022/07/02 10:56:24;;;;;;;12.05;10.95;;;;;;;31.36;38.86;93148.19;5001735;28;20228;-75
2022/07/02 10:58:50;;;;;;;10.90;9.90;;;;;;;31.61;38.72;93165.78;4998526;28;20197;-75
2022/07/02 11:01:18;;;;;;;12.32;11.25;;;;;;;31.75;40.70;93146.78;4996740;28;20227;-76
2022/07/02 11:04:19;;;;;;;11.82;10.77;;;;;;;31.46;38.03;93134.63;5004290;28;20207;-74
2022/07/02 11:06:45;;;;;;;12.32;11.10;;;;;;;32.41;38.80;93153.56;4978124;28;20270;-76
2022/07/02 11:09:10;;;;;;;11.07;10.10;;;;;;;32.82;37.38;93168.97;5003281;28;20191;-76
2022/07/02 11:11:35;;;;;;;12.18;10.90;;;;;;;32.53;35.77;93160.41;5003633;28;20294;-75
2022/07/02 11:14:03;;;;;;;12.20;10.45;;;;;;;32.23;38.44;93161.06;5004360;28;20229;-77
2022/07/02 11:16:34;;;;;;;11.32;10.43;;;;;;;31.90;37.52;93148.22;5003593;28;20235;-77
2022/07/02 11:19:00;;;;;;;11.38;10.52;;;;;;;31.57;38.80;93146.13;5004425;28;20244;-76